GEC8401 OPLA-OMSJ
Flight info
| Callsign | GEC8401 |
|---|---|
| Flight time | N/A |
| Altitude | 34000 |
| Route | VEREN J166 NITIV G214 PG T385 TAPDO A454 VUSET N571 MENSA/N0394F160 N317 NOLSU |
| Aircraft | MD11/H-SDE1E2E3FGHIJ2J3J4J5M1RWXY/LB1D1 |
Departure
| Time | 2026-04-24 11:06 |
|---|---|
| Airport | Allama Iqbal International Airport (OPLA) |
Arrival
| Time | N/A |
|---|---|
| Airport | Sharjah International Airport (OMSJ) |
| Time | Latitude | Longitude | Altitude | Speed | Heading |
|---|---|---|---|---|---|
| 2026-04-24 10:33 | 31.51763 | 74.40935 | 724 ft | 0 kts | 91° |
| 2026-04-24 10:58 | 31.51763 | 74.40934 | 723 ft | 1 kts | 91° |
| 2026-04-24 10:59 | 31.51762 | 74.40905 | 724 ft | 4 kts | 84° |
| 2026-04-24 10:59 | 31.51761 | 74.40875 | 724 ft | 4 kts | 103° |
| 2026-04-24 10:59 | 31.51768 | 74.40854 | 723 ft | 4 kts | 131° |
| 2026-04-24 10:59 | 31.51785 | 74.40839 | 723 ft | 4 kts | 172° |
| 2026-04-24 11:00 | 31.51811 | 74.40837 | 723 ft | 2 kts | 180° |
| 2026-04-24 11:00 | 31.51817 | 74.40837 | 724 ft | 0 kts | 180° |
| 2026-04-24 11:02 | 31.51814 | 74.40837 | 724 ft | 2 kts | 180° |
| 2026-04-24 11:02 | 31.51783 | 74.40837 | 725 ft | 8 kts | 180° |
| 2026-04-24 11:03 | 31.51725 | 74.40821 | 726 ft | 9 kts | 217° |
| 2026-04-24 11:03 | 31.51707 | 74.40744 | 726 ft | 11 kts | 271° |
| 2026-04-24 11:03 | 31.51667 | 74.40665 | 727 ft | 13 kts | 205° |
| 2026-04-24 11:03 | 31.51570 | 74.40658 | 724 ft | 16 kts | 181° |
| 2026-04-24 11:04 | 31.51443 | 74.40655 | 723 ft | 20 kts | 181° |
| 2026-04-24 11:04 | 31.51288 | 74.40653 | 724 ft | 24 kts | 181° |
| 2026-04-24 11:04 | 31.51109 | 74.40650 | 726 ft | 27 kts | 180° |
| 2026-04-24 11:04 | 31.50918 | 74.40647 | 723 ft | 26 kts | 180° |
| 2026-04-24 11:05 | 31.50757 | 74.40614 | 723 ft | 22 kts | 212° |
| 2026-04-24 11:05 | 31.50674 | 74.40510 | 724 ft | 14 kts | 248° |
| 2026-04-24 11:05 | 31.50698 | 74.40440 | 723 ft | 8 kts | 337° |
| 2026-04-24 11:05 | 31.50765 | 74.40435 | 724 ft | 15 kts | 360° |
| 2026-04-24 11:06 | 31.51048 | 74.40439 | 723 ft | 78 kts | 1° |
| 2026-04-24 11:06 | 31.51830 | 74.40450 | 727 ft | 145 kts | 360° |
| 2026-04-24 11:06 | 31.53002 | 74.40456 | 798 ft | 184 kts | 1° |
| 2026-04-24 11:06 | 31.54280 | 74.40537 | 1429 ft | 184 kts | 1° |
| 2026-04-24 11:07 | 31.56888 | 74.40492 | 2744 ft | 189 kts | 341° |
| 2026-04-24 11:07 | 31.57999 | 74.39750 | 3362 ft | 184 kts | 310° |
| 2026-04-24 11:07 | 31.58523 | 74.38414 | 3900 ft | 189 kts | 277° |
| 2026-04-24 11:08 | 31.58334 | 74.36790 | 4092 ft | 214 kts | 256° |
| 2026-04-24 11:08 | 31.57848 | 74.35005 | 4220 ft | 244 kts | 253° |
| 2026-04-24 11:08 | 31.57274 | 74.33055 | 4349 ft | 268 kts | 252° |
| 2026-04-24 11:08 | 31.56625 | 74.30930 | 4704 ft | 282 kts | 252° |
| 2026-04-24 11:09 | 31.55951 | 74.28772 | 5624 ft | 282 kts | 252° |
| 2026-04-24 11:09 | 31.55262 | 74.26601 | 6490 ft | 286 kts | 249° |
| 2026-04-24 11:09 | 31.54168 | 74.24644 | 7278 ft | 292 kts | 225° |
| 2026-04-24 11:09 | 31.52489 | 74.23291 | 8059 ft | 298 kts | 211° |
| 2026-04-24 11:10 | 31.50621 | 74.22186 | 8869 ft | 301 kts | 208° |
| 2026-04-24 11:10 | 31.48756 | 74.21057 | 9658 ft | 303 kts | 210° |
| 2026-04-24 11:10 | 31.46925 | 74.19855 | 10198 ft | 314 kts | 212° |
| 2026-04-24 11:10 | 31.44975 | 74.18476 | 10325 ft | 340 kts | 214° |
| 2026-04-24 11:11 | 31.42913 | 74.16939 | 10539 ft | 360 kts | 215° |
| 2026-04-24 11:11 | 31.40805 | 74.15318 | 11255 ft | 364 kts | 215° |
| 2026-04-24 11:11 | 31.38692 | 74.13663 | 11958 ft | 368 kts | 216° |
| 2026-04-24 11:11 | 31.36558 | 74.11973 | 12640 ft | 373 kts | 216° |
| 2026-04-24 11:12 | 31.34403 | 74.10257 | 13334 ft | 376 kts | 216° |
| 2026-04-24 11:12 | 31.32242 | 74.08531 | 13961 ft | 379 kts | 216° |
| 2026-04-24 11:12 | 31.30076 | 74.06798 | 14534 ft | 383 kts | 216° |
| 2026-04-24 11:12 | 31.27879 | 74.05041 | 15142 ft | 385 kts | 216° |
| 2026-04-24 11:13 | 31.25655 | 74.03260 | 15691 ft | 388 kts | 217° |
| 2026-04-24 11:13 | 31.23576 | 74.01254 | 16253 ft | 388 kts | 226° |
| 2026-04-24 11:13 | 31.21715 | 73.98955 | 16747 ft | 392 kts | 230° |
| 2026-04-24 11:13 | 31.19940 | 73.96524 | 17289 ft | 395 kts | 231° |
| 2026-04-24 11:14 | 31.18181 | 73.94044 | 17811 ft | 398 kts | 232° |
| 2026-04-24 11:14 | 31.16409 | 73.91544 | 18300 ft | 401 kts | 231° |
| 2026-04-24 11:14 | 31.14620 | 73.89041 | 18749 ft | 403 kts | 231° |
| 2026-04-24 11:14 | 31.12814 | 73.86534 | 19186 ft | 405 kts | 231° |
| 2026-04-24 11:15 | 31.10983 | 73.84008 | 19644 ft | 408 kts | 231° |
| 2026-04-24 11:15 | 31.09171 | 73.81518 | 20061 ft | 410 kts | 231° |
| 2026-04-24 11:15 | 31.07316 | 73.78974 | 20496 ft | 412 kts | 231° |
| 2026-04-24 11:15 | 31.05453 | 73.76423 | 20943 ft | 414 kts | 231° |
| 2026-04-24 11:16 | 31.03579 | 73.73860 | 21403 ft | 417 kts | 231° |
| 2026-04-24 11:16 | 31.01698 | 73.71289 | 21863 ft | 418 kts | 231° |
| 2026-04-24 11:16 | 30.99798 | 73.68692 | 22227 ft | 422 kts | 231° |
| 2026-04-24 11:16 | 30.97892 | 73.66090 | 22759 ft | 423 kts | 231° |
| 2026-04-24 11:17 | 30.96621 | 73.64355 | 23036 ft | 425 kts | 230° |
| 2026-04-24 11:17 | 30.94693 | 73.61726 | 23478 ft | 428 kts | 231° |
| 2026-04-24 11:17 | 30.92123 | 73.58224 | 23996 ft | 431 kts | 231° |
| 2026-04-24 11:17 | 30.90169 | 73.55563 | 24405 ft | 434 kts | 231° |
| 2026-04-24 11:18 | 30.88204 | 73.52888 | 24800 ft | 436 kts | 231° |
| 2026-04-24 11:18 | 30.86227 | 73.50200 | 25212 ft | 439 kts | 231° |
| 2026-04-24 11:18 | 30.84233 | 73.47491 | 25622 ft | 441 kts | 231° |
| 2026-04-24 11:18 | 30.82909 | 73.45692 | 25877 ft | 443 kts | 231° |
| 2026-04-24 11:19 | 30.80901 | 73.42967 | 26290 ft | 445 kts | 231° |
| 2026-04-24 11:19 | 30.78224 | 73.39335 | 26812 ft | 449 kts | 231° |
| 2026-04-24 11:19 | 30.76188 | 73.36577 | 27200 ft | 451 kts | 231° |
| 2026-04-24 11:19 | 30.74133 | 73.33794 | 27576 ft | 454 kts | 231° |
| 2026-04-24 11:20 | 30.72072 | 73.31005 | 27951 ft | 456 kts | 231° |
| 2026-04-24 11:20 | 30.70702 | 73.29152 | 28228 ft | 457 kts | 231° |
| 2026-04-24 11:20 | 30.68619 | 73.26346 | 28541 ft | 462 kts | 231° |
| 2026-04-24 11:20 | 30.66524 | 73.23507 | 28881 ft | 464 kts | 231° |
| 2026-04-24 11:21 | 30.64425 | 73.20646 | 29237 ft | 467 kts | 232° |
| 2026-04-24 11:21 | 30.61636 | 73.16828 | 29678 ft | 470 kts | 232° |
| 2026-04-24 11:21 | 30.59520 | 73.13930 | 30049 ft | 470 kts | 232° |
| 2026-04-24 11:21 | 30.57405 | 73.11034 | 30436 ft | 469 kts | 232° |
| 2026-04-24 11:22 | 30.56011 | 73.09127 | 30699 ft | 468 kts | 232° |
| 2026-04-24 11:22 | 30.53910 | 73.06254 | 31087 ft | 467 kts | 232° |
| 2026-04-24 11:22 | 30.51809 | 73.03384 | 31463 ft | 466 kts | 232° |
| 2026-04-24 11:22 | 30.49721 | 73.00533 | 31837 ft | 464 kts | 232° |
| 2026-04-24 11:23 | 30.47627 | 72.97677 | 32198 ft | 463 kts | 232° |
| 2026-04-24 11:23 | 30.45542 | 72.94834 | 32519 ft | 462 kts | 232° |
| 2026-04-24 11:23 | 30.43464 | 72.92004 | 32928 ft | 460 kts | 232° |
| 2026-04-24 11:23 | 30.41398 | 72.89192 | 33317 ft | 457 kts | 232° |
| 2026-04-24 11:24 | 30.39338 | 72.86391 | 33605 ft | 457 kts | 233° |
| 2026-04-24 11:24 | 30.37304 | 72.83625 | 33690 ft | 458 kts | 233° |
| 2026-04-24 11:24 | 30.33153 | 72.77985 | 33704 ft | 461 kts | 233° |
| 2026-04-24 11:25 | 30.28986 | 72.72336 | 33705 ft | 462 kts | 233° |
| 2026-04-24 11:25 | 30.24816 | 72.66692 | 33705 ft | 461 kts | 233° |
| 2026-04-24 11:26 | 30.20640 | 72.61052 | 33702 ft | 461 kts | 232° |
| 2026-04-24 11:26 | 30.16432 | 72.55476 | 33702 ft | 459 kts | 232° |
| 2026-04-24 11:27 | 30.12246 | 72.49969 | 33705 ft | 459 kts | 232° |
| 2026-04-24 11:27 | 30.08037 | 72.44424 | 33705 ft | 459 kts | 232° |
| 2026-04-24 11:28 | 30.03830 | 72.38881 | 33705 ft | 459 kts | 232° |
| 2026-04-24 11:28 | 29.99625 | 72.33346 | 33706 ft | 459 kts | 232° |
| 2026-04-24 11:29 | 29.95412 | 72.27809 | 33705 ft | 459 kts | 232° |
| 2026-04-24 11:29 | 29.91223 | 72.22310 | 33709 ft | 461 kts | 231° |
| 2026-04-24 11:30 | 29.86988 | 72.16763 | 33711 ft | 461 kts | 231° |
| 2026-04-24 11:30 | 29.82742 | 72.11225 | 33711 ft | 461 kts | 231° |
| 2026-04-24 11:31 | 29.78498 | 72.05689 | 33711 ft | 461 kts | 231° |
| 2026-04-24 11:31 | 29.74253 | 72.00151 | 33713 ft | 461 kts | 231° |
| 2026-04-24 11:32 | 29.70041 | 71.94661 | 33703 ft | 461 kts | 231° |
| 2026-04-24 11:32 | 29.65791 | 71.89129 | 33714 ft | 462 kts | 231° |
| 2026-04-24 11:33 | 29.61519 | 71.83577 | 33713 ft | 464 kts | 231° |
| 2026-04-24 11:33 | 29.57241 | 71.78026 | 33715 ft | 464 kts | 231° |
| 2026-04-24 11:34 | 29.52988 | 71.72514 | 33713 ft | 464 kts | 231° |
| 2026-04-24 11:34 | 29.48704 | 71.66970 | 33713 ft | 464 kts | 231° |
| 2026-04-24 11:35 | 29.44419 | 71.61432 | 33716 ft | 464 kts | 231° |
| 2026-04-24 11:35 | 29.40133 | 71.55901 | 33715 ft | 464 kts | 231° |
| 2026-04-24 11:36 | 29.35830 | 71.50354 | 33703 ft | 467 kts | 232° |
| 2026-04-24 11:36 | 29.31527 | 71.44821 | 33709 ft | 469 kts | 231° |
| 2026-04-24 11:37 | 29.27160 | 71.39281 | 33710 ft | 469 kts | 231° |
| 2026-04-24 11:37 | 29.22765 | 71.33754 | 33714 ft | 469 kts | 231° |
| 2026-04-24 11:38 | 29.18371 | 71.28229 | 33713 ft | 469 kts | 231° |
| 2026-04-24 11:38 | 29.13979 | 71.22705 | 33710 ft | 469 kts | 231° |
| 2026-04-24 11:39 | 29.09586 | 71.17185 | 33710 ft | 469 kts | 231° |
| 2026-04-24 11:39 | 29.05218 | 71.11705 | 33706 ft | 469 kts | 231° |
| 2026-04-24 11:40 | 29.00812 | 71.06185 | 33705 ft | 471 kts | 231° |
| 2026-04-24 11:40 | 28.96390 | 71.00652 | 33706 ft | 472 kts | 231° |
| 2026-04-24 11:41 | 28.91962 | 70.95120 | 33704 ft | 472 kts | 231° |
| 2026-04-24 11:41 | 28.87529 | 70.89590 | 33711 ft | 472 kts | 231° |
| 2026-04-24 11:42 | 28.83116 | 70.84092 | 33706 ft | 474 kts | 231° |
| 2026-04-24 11:42 | 28.78657 | 70.78542 | 33705 ft | 475 kts | 231° |
| 2026-04-24 11:43 | 28.74189 | 70.72992 | 33701 ft | 475 kts | 231° |
| 2026-04-24 11:43 | 28.69710 | 70.67460 | 33701 ft | 475 kts | 231° |
| 2026-04-24 11:44 | 28.65216 | 70.61908 | 33704 ft | 478 kts | 231° |
| 2026-04-24 11:44 | 28.60705 | 70.56329 | 33700 ft | 479 kts | 231° |
| 2026-04-24 11:45 | 28.56225 | 70.50793 | 33701 ft | 478 kts | 231° |
| 2026-04-24 11:45 | 28.51718 | 70.45232 | 33701 ft | 478 kts | 231° |
| 2026-04-24 11:46 | 28.47216 | 70.39683 | 33697 ft | 478 kts | 231° |
| 2026-04-24 11:46 | 28.42706 | 70.34132 | 33696 ft | 478 kts | 231° |
| 2026-04-24 11:47 | 28.38195 | 70.28587 | 33696 ft | 478 kts | 231° |
| 2026-04-24 11:47 | 28.34246 | 70.22668 | 33685 ft | 471 kts | 244° |
| 2026-04-24 11:48 | 28.31368 | 70.16001 | 33690 ft | 470 kts | 249° |
| 2026-04-24 11:48 | 28.28658 | 70.09252 | 33691 ft | 470 kts | 249° |
| 2026-04-24 11:49 | 28.25861 | 70.02538 | 33687 ft | 471 kts | 248° |
| 2026-04-24 11:49 | 28.23011 | 69.95852 | 33686 ft | 471 kts | 248° |
| 2026-04-24 11:50 | 28.20167 | 69.89222 | 33680 ft | 471 kts | 248° |
| 2026-04-24 11:50 | 28.17305 | 69.82559 | 33680 ft | 467 kts | 248° |
| 2026-04-24 11:51 | 28.14466 | 69.75958 | 33680 ft | 465 kts | 248° |
| 2026-04-24 11:51 | 28.11629 | 69.69364 | 33680 ft | 465 kts | 248° |
| 2026-04-24 11:52 | 28.08808 | 69.62818 | 33681 ft | 465 kts | 248° |
| 2026-04-24 11:52 | 28.05965 | 69.56235 | 33680 ft | 465 kts | 248° |
| 2026-04-24 11:53 | 28.03121 | 69.49658 | 33683 ft | 466 kts | 248° |
| 2026-04-24 11:53 | 28.00271 | 69.43081 | 33682 ft | 466 kts | 248° |
| 2026-04-24 11:54 | 27.97402 | 69.36501 | 33688 ft | 466 kts | 248° |
| 2026-04-24 11:54 | 27.94548 | 69.29977 | 33689 ft | 466 kts | 248° |
| 2026-04-24 11:55 | 27.91681 | 69.23409 | 33697 ft | 466 kts | 248° |
| 2026-04-24 11:55 | 27.88793 | 69.16829 | 33696 ft | 469 kts | 247° |
| 2026-04-24 11:56 | 27.85882 | 69.10223 | 33702 ft | 470 kts | 247° |
| 2026-04-24 11:56 | 27.82967 | 69.03614 | 33697 ft | 470 kts | 247° |
| 2026-04-24 11:57 | 27.80069 | 68.97052 | 33710 ft | 470 kts | 247° |
| 2026-04-24 11:57 | 27.77149 | 68.90450 | 33724 ft | 470 kts | 247° |
| 2026-04-24 11:58 | 27.74224 | 68.83846 | 33729 ft | 471 kts | 246° |
| 2026-04-24 11:58 | 27.71625 | 68.77093 | 33721 ft | 468 kts | 256° |
| 2026-04-24 11:59 | 27.70296 | 68.69934 | 33726 ft | 466 kts | 263° |
| 2026-04-24 11:59 | 27.69275 | 68.62762 | 33733 ft | 466 kts | 263° |
| 2026-04-24 12:00 | 27.68179 | 68.55553 | 33733 ft | 466 kts | 262° |
| 2026-04-24 12:00 | 27.67017 | 68.48337 | 33727 ft | 470 kts | 262° |
| 2026-04-24 12:01 | 27.65825 | 68.41066 | 33724 ft | 472 kts | 262° |
| 2026-04-24 12:01 | 27.64627 | 68.33797 | 33733 ft | 471 kts | 262° |
| 2026-04-24 12:02 | 27.63429 | 68.26527 | 33730 ft | 471 kts | 262° |
| 2026-04-24 12:02 | 27.62228 | 68.19257 | 33711 ft | 472 kts | 262° |
| 2026-04-24 12:03 | 27.61032 | 68.12054 | 33711 ft | 470 kts | 263° |
| 2026-04-24 12:03 | 27.59827 | 68.04808 | 33720 ft | 470 kts | 263° |
| 2026-04-24 12:04 | 27.58617 | 67.97559 | 33723 ft | 470 kts | 263° |
| 2026-04-24 12:04 | 27.57403 | 67.90314 | 33708 ft | 470 kts | 263° |
| 2026-04-24 12:05 | 27.56176 | 67.83074 | 33707 ft | 470 kts | 262° |
| 2026-04-24 12:05 | 27.54945 | 67.75886 | 33712 ft | 470 kts | 262° |
| 2026-04-24 12:06 | 27.53712 | 67.68648 | 33717 ft | 470 kts | 263° |
| 2026-04-24 12:06 | 27.52484 | 67.61417 | 33724 ft | 470 kts | 263° |
| 2026-04-24 12:07 | 27.51251 | 67.54175 | 33738 ft | 470 kts | 263° |
| 2026-04-24 12:07 | 27.50021 | 67.46983 | 33738 ft | 466 kts | 263° |
| 2026-04-24 12:08 | 27.48802 | 67.39865 | 33767 ft | 466 kts | 263° |
| 2026-04-24 12:08 | 27.47571 | 67.32705 | 33761 ft | 466 kts | 263° |
| 2026-04-24 12:09 | 27.46335 | 67.25540 | 33808 ft | 466 kts | 262° |
| 2026-04-24 12:09 | 27.45158 | 67.18367 | 33804 ft | 465 kts | 264° |
| 2026-04-24 12:10 | 27.44062 | 67.11207 | 33822 ft | 464 kts | 264° |
| 2026-04-24 12:11 | 27.42441 | 67.00522 | 33850 ft | 464 kts | 264° |
| 2026-04-24 12:11 | 27.41346 | 66.93368 | 33853 ft | 464 kts | 264° |
| 2026-04-24 12:12 | 27.40244 | 66.86207 | 33868 ft | 464 kts | 264° |
| 2026-04-24 12:12 | 27.39141 | 66.79067 | 33868 ft | 463 kts | 263° |
| 2026-04-24 12:13 | 27.38035 | 66.71928 | 33880 ft | 463 kts | 263° |
| 2026-04-24 12:13 | 27.36931 | 66.64834 | 33887 ft | 463 kts | 263° |
| 2026-04-24 12:14 | 27.35818 | 66.57700 | 33892 ft | 463 kts | 263° |
| 2026-04-24 12:14 | 27.34700 | 66.50540 | 33894 ft | 467 kts | 263° |
| 2026-04-24 12:15 | 27.33568 | 66.43347 | 33898 ft | 467 kts | 263° |
| 2026-04-24 12:15 | 27.32433 | 66.36157 | 33891 ft | 467 kts | 263° |
| 2026-04-24 12:16 | 27.31289 | 66.28968 | 33889 ft | 467 kts | 263° |
| 2026-04-24 12:16 | 27.30134 | 66.21822 | 33871 ft | 468 kts | 263° |
| 2026-04-24 12:17 | 27.28976 | 66.14611 | 33882 ft | 469 kts | 263° |
| 2026-04-24 12:17 | 27.27821 | 66.07394 | 33874 ft | 469 kts | 263° |
| 2026-04-24 12:18 | 27.26663 | 66.00181 | 33864 ft | 469 kts | 263° |
| 2026-04-24 12:18 | 27.25510 | 65.93010 | 33864 ft | 469 kts | 263° |
| 2026-04-24 12:19 | 27.24353 | 65.85815 | 33871 ft | 467 kts | 262° |
| 2026-04-24 12:19 | 27.23195 | 65.78637 | 33862 ft | 467 kts | 262° |
| 2026-04-24 12:20 | 27.22035 | 65.71464 | 33868 ft | 467 kts | 262° |
| 2026-04-24 12:20 | 27.20870 | 65.64291 | 33871 ft | 466 kts | 262° |
| 2026-04-24 12:21 | 27.19709 | 65.57168 | 33857 ft | 467 kts | 262° |
| 2026-04-24 12:21 | 27.18538 | 65.50003 | 33869 ft | 467 kts | 262° |
| 2026-04-24 12:22 | 27.17363 | 65.42836 | 33848 ft | 467 kts | 262° |
| 2026-04-24 12:22 | 27.16184 | 65.35671 | 33847 ft | 467 kts | 262° |
| 2026-04-24 12:23 | 27.15002 | 65.28508 | 33842 ft | 466 kts | 263° |
| 2026-04-24 12:23 | 27.13826 | 65.21412 | 33849 ft | 465 kts | 263° |
| 2026-04-24 12:24 | 27.12640 | 65.14277 | 33838 ft | 465 kts | 263° |
| 2026-04-24 12:24 | 27.11434 | 65.07148 | 33843 ft | 465 kts | 263° |
| 2026-04-24 12:25 | 27.10227 | 65.00017 | 33845 ft | 465 kts | 263° |
| 2026-04-24 12:25 | 27.09029 | 64.92903 | 33835 ft | 463 kts | 263° |
| 2026-04-24 12:26 | 27.07843 | 64.85856 | 33837 ft | 463 kts | 262° |
| 2026-04-24 12:26 | 27.06646 | 64.78765 | 33846 ft | 462 kts | 262° |
| 2026-04-24 12:27 | 27.05446 | 64.71679 | 33844 ft | 462 kts | 262° |
| 2026-04-24 12:27 | 27.04242 | 64.64596 | 33850 ft | 462 kts | 262° |
| 2026-04-24 12:28 | 27.03043 | 64.57564 | 33839 ft | 462 kts | 262° |
| 2026-04-24 12:28 | 27.01832 | 64.50483 | 33837 ft | 462 kts | 262° |
| 2026-04-24 12:29 | 27.00617 | 64.43405 | 33840 ft | 462 kts | 262° |
| 2026-04-24 12:29 | 26.99398 | 64.36319 | 33840 ft | 463 kts | 262° |
| 2026-04-24 12:30 | 26.98176 | 64.29242 | 33837 ft | 462 kts | 262° |
| 2026-04-24 12:30 | 26.96959 | 64.22222 | 33830 ft | 462 kts | 262° |
| 2026-04-24 12:31 | 26.95223 | 64.15271 | 33829 ft | 468 kts | 249° |
| 2026-04-24 12:31 | 26.93615 | 64.12084 | 33824 ft | 473 kts | 238° |
| 2026-04-24 12:31 | 26.91505 | 64.09236 | 33824 ft | 478 kts | 230° |
| 2026-04-24 12:32 | 26.86685 | 64.04067 | 33822 ft | 481 kts | 227° |
| 2026-04-24 12:32 | 26.81866 | 63.98953 | 33824 ft | 480 kts | 228° |
| 2026-04-24 12:33 | 26.77129 | 63.93688 | 33820 ft | 479 kts | 229° |
| 2026-04-24 12:33 | 26.72443 | 63.88380 | 33819 ft | 479 kts | 229° |
| 2026-04-24 12:34 | 26.67760 | 63.83072 | 33803 ft | 480 kts | 229° |
| 2026-04-24 12:34 | 26.63050 | 63.77746 | 33810 ft | 482 kts | 229° |
| 2026-04-24 12:35 | 26.58359 | 63.72455 | 33811 ft | 482 kts | 230° |
| 2026-04-24 12:35 | 26.53646 | 63.67149 | 33813 ft | 481 kts | 230° |
| 2026-04-24 12:36 | 26.48937 | 63.61851 | 33810 ft | 481 kts | 230° |
| 2026-04-24 12:36 | 26.44227 | 63.56557 | 33812 ft | 481 kts | 230° |
| 2026-04-24 12:37 | 26.39513 | 63.51265 | 33805 ft | 481 kts | 229° |
| 2026-04-24 12:37 | 26.34826 | 63.46012 | 33807 ft | 481 kts | 229° |
| 2026-04-24 12:38 | 26.30095 | 63.40735 | 33806 ft | 482 kts | 229° |
| 2026-04-24 12:38 | 26.25360 | 63.35456 | 33792 ft | 481 kts | 229° |
| 2026-04-24 12:39 | 26.15904 | 63.24905 | 33782 ft | 481 kts | 229° |
| 2026-04-24 12:40 | 26.11204 | 63.19669 | 33770 ft | 481 kts | 229° |
| 2026-04-24 12:40 | 26.06471 | 63.14401 | 33778 ft | 481 kts | 229° |
| 2026-04-24 12:41 | 26.01732 | 63.09137 | 33769 ft | 481 kts | 229° |
| 2026-04-24 12:41 | 25.97001 | 63.03882 | 33762 ft | 482 kts | 229° |
| 2026-04-24 12:42 | 25.92246 | 62.98593 | 33760 ft | 484 kts | 229° |
| 2026-04-24 12:42 | 25.87481 | 62.93293 | 33760 ft | 485 kts | 229° |
| 2026-04-24 12:43 | 25.82749 | 62.88036 | 33760 ft | 485 kts | 229° |
| 2026-04-24 12:43 | 25.77987 | 62.82750 | 33762 ft | 485 kts | 229° |
| 2026-04-24 12:44 | 25.73218 | 62.77465 | 33763 ft | 484 kts | 229° |
| 2026-04-24 12:44 | 25.68457 | 62.72195 | 33773 ft | 483 kts | 229° |
| 2026-04-24 12:45 | 25.63696 | 62.66931 | 33771 ft | 483 kts | 229° |
| 2026-04-24 12:45 | 25.58942 | 62.61680 | 33768 ft | 483 kts | 229° |
| 2026-04-24 12:46 | 25.54207 | 62.56458 | 33772 ft | 483 kts | 229° |
| 2026-04-24 12:46 | 25.49444 | 62.51210 | 33769 ft | 482 kts | 229° |
| 2026-04-24 12:47 | 25.44689 | 62.45979 | 33770 ft | 482 kts | 229° |
| 2026-04-24 12:47 | 25.39933 | 62.40758 | 33771 ft | 482 kts | 228° |
| 2026-04-24 12:48 | 25.35170 | 62.35549 | 33769 ft | 482 kts | 228° |
| 2026-04-24 12:48 | 25.30942 | 62.30920 | 33772 ft | 482 kts | 228° |
| 2026-04-24 12:49 | 25.26214 | 62.25743 | 33764 ft | 482 kts | 228° |
| 2026-04-24 12:49 | 25.22223 | 62.21376 | 33767 ft | 483 kts | 229° |
| 2026-04-24 12:50 | 25.18565 | 62.17371 | 33772 ft | 483 kts | 229° |
| 2026-04-24 12:50 | 25.14483 | 62.12915 | 33771 ft | 483 kts | 228° |
| 2026-04-24 12:51 | 25.09700 | 62.07700 | 33776 ft | 483 kts | 228° |
| 2026-04-24 12:51 | 25.04927 | 62.02499 | 33775 ft | 483 kts | 228° |
| 2026-04-24 12:52 | 25.00146 | 61.97295 | 33774 ft | 483 kts | 228° |
| 2026-04-24 12:52 | 24.95365 | 61.92097 | 33781 ft | 483 kts | 228° |
| 2026-04-24 12:53 | 24.90605 | 61.86928 | 33770 ft | 484 kts | 228° |
| 2026-04-24 12:53 | 24.86579 | 61.82561 | 33772 ft | 486 kts | 228° |